Eckert, CO (81418)

7:31 PM MST on February 11, 2016 (GMT -0700)
KCOAUSTI3 | | Change Station
CLOSE
Current Station
Personal Weather Station
Location: Austin, CO
Elevation: 5837 ft
Nearby Weather Stations

Elev 5837 ft 38.82 °N, 107.95 °W | Updated 7 minutes ago

Clear
Clear
38.5 °F
Feels Like 38 °F
N
0.0
Wind Variable Wind from East

Today
High -- | Low -- °F
--% Chance of Precip.
Yesterday
High -- | Low -- °F
Precip. -- in
Pressure 30.39 in
Visibility 10.0 miles
Clouds Clear
Windchill 38 °F
Dew Point 25 °F
Humidity 57%
Rainfall 0.00 in
Snow Depth Not available.
7:08 AM 5:44 PM
Waxing Crescent, 16% visible
METAR KAJZ 120215Z AUTO 00000KT 10SM CLR 02/M01 A3039 RMK AO2 T00201015
Pressure 30.39 in
Visibility 10.0 miles
Clouds Clear
Windchill 38 °F
Dew Point 25 °F
Humidity 57%
Rainfall 0.00 in
Snow Depth Not available.
7:08 AM 5:44 PM
Waxing Crescent, 16% visible
METAR KAJZ 120215Z AUTO 00000KT 10SM CLR 02/M01 A3039 RMK AO2 T00201015

10-Day Weather Forecast

Almanac

Astronomy

Feb. 11, 2016 Rise Set
Actual Time
Civil Twilight
Nautical Twilight
Astronomical Twilight
Moon
Length of Visible Light
Length of Day
Tomorrow will be .
, % of the Moon is Illuminated

Today's Extremes

State Highs State Lows

Community

WunderPhotos

Upload Photos

1,892,226 photos uploaded!

WunderBlog® & News

Nearby

Air Quality

  Air Quality AQ Index Pollutant
Not available.

Snow Depth

Station Depth Elevation

Earthquake Activity

City Distance Mag. Time & Date
Minimum magnitude displayed is 2.5.

Coastal Water Temperatures

Place Temperature

Stations

Nearby Weather Stations

Station Location Temp. Windchill Dew Point Humidity Wind Precip. Elev Updated Type
                   

Watches & Warnings

There are currently no watches in effect.